createdAt,value
2022-09-28T00:01:27.105Z,1.80
2022-09-28T00:04:00.373Z,1.63
2022-09-28T00:06:31.011Z,1.88
2022-09-28T00:08:59.687Z,1.80
2022-09-28T00:11:29.730Z,1.92
2022-09-28T00:14:02.750Z,1.88
2022-09-28T00:16:34.627Z,1.70
2022-09-28T00:19:05.502Z,1.95
2022-09-28T00:21:37.406Z,1.73
2022-09-28T00:24:13.061Z,1.50
2022-09-28T00:26:47.330Z,1.60
2022-09-28T00:29:20.578Z,1.60
2022-09-28T00:31:49.475Z,1.60
2022-09-28T00:34:17.546Z,1.43
2022-09-28T00:36:47.231Z,1.40
2022-09-28T00:39:16.394Z,1.40
2022-09-28T00:41:45.515Z,1.48
2022-09-28T00:44:43.760Z,1.75
2022-09-28T00:47:27.078Z,1.60
2022-09-28T00:50:03.509Z,1.60
2022-09-28T00:52:48.872Z,1.50
2022-09-28T00:55:26.092Z,1.80
2022-09-28T00:57:57.427Z,1.50
2022-09-28T01:00:25.885Z,1.57
2022-09-28T01:02:54.346Z,1.40
2022-09-28T01:05:23.480Z,1.50
2022-09-28T01:07:51.989Z,1.40
2022-09-28T01:10:20.663Z,1.45
2022-09-28T01:12:48.726Z,1.50
2022-09-28T01:15:17.116Z,1.52
2022-09-28T01:18:14.126Z,1.50
2022-09-28T01:20:56.206Z,1.35
2022-09-28T01:23:24.436Z,1.40
2022-09-28T01:26:11.167Z,1.60
2022-09-28T01:28:43.657Z,1.50
2022-09-28T01:31:14.969Z,1.27
2022-09-28T01:33:46.862Z,1.40
2022-09-28T01:36:23.140Z,1.50
2022-09-28T01:39:00.961Z,1.53
2022-09-28T01:41:31.933Z,1.40
2022-09-28T01:44:06.395Z,1.60
2022-09-28T01:46:48.518Z,1.50
2022-09-28T01:49:24.993Z,1.88
2022-09-28T01:52:05.346Z,1.30
2022-09-28T01:54:46.875Z,1.40
2022-09-28T01:57:19.420Z,1.70
2022-09-28T02:00:07.322Z,1.88
2022-09-28T02:02:48.897Z,1.30
2022-09-28T02:05:34.877Z,1.40
2022-09-28T02:08:45.043Z,1.40
2022-09-28T02:11:17.723Z,1.40
2022-09-28T02:14:08.366Z,1.30
2022-09-28T02:16:48.467Z,1.30
2022-09-28T02:19:23.980Z,1.40
2022-09-28T02:22:23.710Z,1.30
2022-09-28T02:24:58.765Z,1.42
2022-09-28T02:27:46.381Z,1.20
2022-09-28T02:30:15.392Z,1.30
2022-09-28T02:32:47.944Z,1.33
2022-09-28T02:35:18.981Z,1.40
2022-09-28T02:37:47.556Z,1.15
2022-09-28T02:40:17.858Z,1.20
2022-09-28T02:43:08.927Z,1.17
2022-09-28T02:45:58.175Z,1.30
2022-09-28T02:49:20.739Z,1.10
2022-09-28T02:52:04.271Z,1.40
2022-09-28T02:54:56.691Z,1.23
2022-09-28T02:57:53.876Z,1.60
2022-09-28T03:00:24.491Z,1.13
2022-09-28T03:03:02.294Z,1.30
2022-09-28T03:06:06.092Z,1.35
2022-09-28T03:09:18.931Z,1.40
2022-09-28T03:11:57.567Z,1.35
2022-09-28T03:14:26.150Z,1.40
2022-09-28T03:16:57.793Z,1.25
2022-09-28T03:19:32.539Z,1.40
2022-09-28T03:22:06.131Z,1.55
2022-09-28T03:24:34.227Z,1.40
2022-09-28T03:27:03.359Z,1.60
2022-09-28T03:29:35.019Z,1.48
2022-09-28T03:32:07.015Z,1.33
2022-09-28T03:34:36.286Z,1.30
2022-09-28T03:37:04.191Z,1.20
2022-09-28T03:39:32.646Z,1.40
2022-09-28T03:42:01.754Z,1.45
2022-09-28T03:44:32.342Z,1.60
2022-09-28T03:47:00.357Z,1.40
2022-09-28T03:49:28.307Z,1.70
2022-09-28T03:51:56.423Z,1.23
2022-09-28T03:54:25.752Z,1.30
2022-09-28T03:56:54.280Z,1.60
2022-09-28T03:59:22.399Z,1.20
2022-09-28T04:01:51.699Z,1.58
2022-09-28T04:04:20.312Z,1.37
2022-09-28T04:06:49.522Z,1.30
2022-09-28T04:09:17.692Z,1.60
2022-09-28T04:12:03.412Z,1.77
2022-09-28T04:14:32.053Z,1.88
2022-09-28T04:17:00.029Z,1.50
2022-09-28T04:19:29.505Z,1.40
2022-09-28T04:22:10.913Z,1.33
2022-09-28T04:24:40.096Z,1.38
2022-09-28T04:27:26.308Z,1.27
2022-09-28T04:29:54.535Z,1.50
2022-09-28T04:32:23.070Z,1.45
2022-09-28T04:34:52.355Z,1.25
2022-09-28T04:37:20.571Z,1.42
2022-09-28T04:39:48.827Z,1.60
2022-09-28T04:42:20.022Z,1.50
2022-09-28T04:44:50.220Z,1.20
2022-09-28T04:47:18.086Z,1.40
2022-09-28T04:49:55.275Z,1.90
2022-09-28T04:52:30.786Z,2.00
2022-09-28T04:54:58.941Z,2.40
2022-09-28T04:57:27.361Z,3.90
2022-09-28T04:59:55.933Z,4.40
2022-09-28T05:02:25.288Z,3.38
2022-09-28T05:05:12.130Z,2.63
2022-09-28T05:08:06.893Z,2.80
2022-09-28T05:10:36.013Z,2.80
2022-09-28T05:13:04.016Z,2.65
2022-09-28T05:15:32.123Z,2.28
2022-09-28T05:18:00.088Z,2.55
2022-09-28T05:20:46.739Z,3.00
2022-09-28T05:23:16.006Z,2.92
2022-09-28T05:25:46.168Z,2.45
2022-09-28T05:28:29.008Z,1.95
2022-09-28T05:31:16.109Z,1.73
2022-09-28T05:34:10.011Z,1.40
2022-09-28T05:36:40.313Z,1.40
2022-09-28T05:39:08.945Z,1.60
2022-09-28T05:41:37.011Z,1.40
2022-09-28T05:44:05.761Z,1.30
2022-09-28T05:46:33.831Z,1.20
2022-09-28T05:49:02.767Z,1.30
2022-09-28T05:51:30.791Z,1.23
2022-09-28T05:54:04.600Z,1.30
2022-09-28T05:56:34.616Z,1.58
2022-09-28T05:59:06.627Z,1.47
2022-09-28T06:01:34.821Z,1.27
2022-09-28T06:04:04.128Z,1.20
2022-09-28T06:06:32.602Z,1.40
2022-09-28T06:09:00.675Z,1.38
2022-09-28T06:11:28.582Z,1.10
2022-09-28T06:13:59.335Z,1.30
2022-09-28T06:16:30.455Z,1.23
2022-09-28T06:18:58.675Z,1.50
2022-09-28T06:21:49.171Z,1.40
2022-09-28T06:24:17.505Z,1.80
2022-09-28T06:26:45.493Z,1.50
2022-09-28T06:29:19.953Z,1.60
2022-09-28T06:31:48.374Z,2.00
2022-09-28T06:34:19.504Z,1.80
2022-09-28T06:36:48.547Z,2.00
2022-09-28T06:39:17.429Z,1.90
2022-09-28T06:41:46.362Z,1.63
2022-09-28T06:44:17.282Z,1.73
2022-09-28T06:47:04.266Z,1.92
2022-09-28T06:49:55.698Z,2.00
2022-09-28T06:52:42.563Z,1.40
2022-09-28T06:55:31.607Z,1.40
2022-09-28T06:58:08.072Z,1.83
2022-09-28T07:00:38.517Z,1.40
2022-09-28T07:03:11.061Z,1.83
2022-09-28T07:05:58.791Z,2.00
2022-09-28T07:08:46.244Z,2.25
2022-09-28T07:11:41.969Z,2.10
2022-09-28T07:14:44.059Z,2.03
2022-09-28T07:17:15.205Z,1.73
2022-09-28T07:19:45.031Z,2.08
2022-09-28T07:22:18.817Z,2.30
2022-09-28T07:24:49.328Z,2.17
2022-09-28T07:27:39.935Z,2.22
2022-09-28T07:30:17.315Z,1.70
2022-09-28T07:33:07.546Z,1.90
2022-09-28T07:35:58.559Z,1.95
2022-09-28T07:38:29.841Z,1.92
2022-09-28T07:41:14.573Z,2.53
2022-09-28T07:43:46.510Z,3.47
2022-09-28T07:46:14.894Z,3.38
2022-09-28T07:48:50.012Z,2.85
2022-09-28T07:51:53.572Z,3.08
2022-09-28T07:54:21.633Z,2.50
2022-09-28T07:57:11.815Z,2.00
2022-09-28T07:59:45.797Z,1.90
2022-09-28T08:02:35.510Z,1.77
2022-09-28T08:05:04.397Z,2.22
2022-09-28T08:07:34.855Z,1.65
2022-09-28T08:10:06.437Z,2.00
2022-09-28T08:13:06.421Z,1.65
2022-09-28T08:15:55.459Z,2.00
2022-09-28T08:18:49.981Z,1.63
2022-09-28T08:21:36.015Z,1.70
2022-09-28T08:24:04.225Z,1.90
2022-09-28T08:26:32.207Z,1.67
2022-09-28T08:29:00.495Z,1.88
2022-09-28T08:32:00.804Z,1.42
2022-09-28T08:34:37.234Z,1.67
2022-09-28T08:37:19.811Z,2.17
2022-09-28T08:40:07.132Z,2.03
2022-09-28T08:42:46.132Z,2.50
2022-09-28T08:45:20.100Z,1.80
2022-09-28T08:48:56.903Z,3.42
2022-09-28T08:52:14.318Z,2.30
2022-09-28T08:55:19.271Z,2.00
2022-09-28T08:58:09.484Z,1.60
2022-09-28T09:00:48.184Z,1.48
2022-09-28T09:03:30.351Z,2.20
2022-09-28T09:07:00.141Z,1.30
2022-09-28T09:09:53.890Z,1.73
2022-09-28T09:12:46.219Z,2.58
2022-09-28T09:15:41.325Z,2.42
2022-09-28T09:18:39.015Z,1.70
2022-09-28T09:21:42.482Z,1.67
2022-09-28T09:24:27.559Z,1.50
2022-09-28T09:27:11.105Z,1.40
2022-09-28T09:30:12.432Z,1.48
2022-09-28T09:33:03.671Z,1.38
2022-09-28T09:35:37.906Z,1.40
2022-09-28T09:38:55.395Z,1.20
2022-09-28T09:42:01.497Z,1.30
2022-09-28T09:45:29.225Z,1.27
2022-09-28T09:48:28.064Z,1.60
2022-09-28T09:51:03.532Z,1.63
2022-09-28T09:53:42.651Z,1.40
2022-09-28T09:56:19.793Z,1.60
2022-09-28T09:59:11.938Z,1.98
2022-09-28T10:01:58.937Z,1.17
2022-09-28T10:04:47.121Z,1.33
2022-09-28T10:07:47.138Z,1.40
2022-09-28T10:10:23.332Z,1.20
2022-09-28T10:12:54.962Z,1.23
2022-09-28T10:15:29.392Z,1.00
2022-09-28T10:18:15.757Z,1.00
2022-09-28T10:21:18.891Z,1.10
2022-09-28T10:24:03.005Z,1.20
2022-09-28T10:26:39.711Z,1.38
2022-09-28T10:29:21.089Z,1.40
2022-09-28T10:31:55.158Z,1.90
2022-09-28T10:34:34.169Z,1.40
2022-09-28T10:37:14.580Z,1.45
2022-09-28T10:40:01.354Z,1.42
2022-09-28T10:42:36.812Z,1.20
2022-09-28T10:45:25.043Z,1.17
2022-09-28T10:47:53.418Z,1.33
2022-09-28T10:50:28.006Z,1.40
2022-09-28T10:53:17.148Z,1.10
2022-09-28T10:56:09.210Z,1.20
2022-09-28T10:58:42.445Z,1.50
2022-09-28T11:01:40.982Z,1.30
2022-09-28T11:04:22.666Z,1.10
2022-09-28T11:06:52.106Z,1.20
2022-09-28T11:09:42.478Z,1.73
2022-09-28T11:12:20.036Z,1.70
2022-09-28T11:14:55.993Z,1.30
2022-09-28T11:17:39.225Z,1.10
2022-09-28T11:20:28.251Z,1.20
2022-09-28T11:23:17.054Z,1.25
2022-09-28T11:25:58.526Z,1.20
2022-09-28T11:28:32.978Z,1.30
2022-09-28T11:31:07.550Z,1.20
2022-09-28T11:33:45.912Z,2.40
2022-09-28T11:36:59.594Z,1.50
2022-09-28T11:39:53.215Z,1.70
2022-09-28T11:42:39.097Z,2.10
2022-09-28T11:45:57.431Z,1.90
2022-09-28T11:48:34.242Z,1.85
2022-09-28T11:51:09.067Z,1.48
2022-09-28T11:54:03.896Z,1.33
2022-09-28T11:56:39.584Z,1.40
2022-09-28T11:59:15.734Z,1.10
2022-09-28T12:01:58.717Z,1.10
2022-09-28T12:04:49.443Z,1.50
2022-09-28T12:07:27.891Z,1.60
2022-09-28T12:09:58.490Z,1.38
2022-09-28T12:12:45.939Z,1.40
2022-09-28T12:15:38.230Z,1.40
2022-09-28T12:18:27.422Z,1.27
2022-09-28T12:21:25.052Z,1.70
2022-09-28T12:24:10.748Z,1.10
2022-09-28T12:27:01.104Z,1.30
2022-09-28T12:29:35.738Z,1.40
2022-09-28T12:32:16.660Z,1.40
2022-09-28T12:34:44.837Z,1.20
2022-09-28T12:37:31.375Z,1.00
2022-09-28T12:40:33.003Z,1.27
2022-09-28T12:43:42.081Z,1.88
2022-09-28T12:46:21.199Z,1.45
2022-09-28T12:52:21.716Z,1.90
2022-09-28T12:55:26.441Z,1.58
2022-09-28T12:57:58.879Z,1.45
2022-09-28T13:00:51.769Z,1.42
2022-09-28T13:03:36.023Z,1.43
2022-09-28T13:06:20.131Z,1.40
2022-09-28T13:08:57.208Z,1.50
2022-09-28T13:11:33.563Z,1.30
2022-09-28T13:14:29.406Z,1.27
2022-09-28T13:17:27.420Z,1.00
2022-09-28T13:20:02.248Z,1.10
2022-09-28T13:23:00.029Z,1.20
2022-09-28T13:25:31.572Z,1.25
2022-09-28T13:28:03.436Z,1.20
2022-09-28T13:30:35.763Z,1.50
2022-09-28T13:33:06.154Z,1.52
2022-09-28T13:35:35.464Z,1.25
2022-09-28T13:38:18.081Z,1.40
2022-09-28T13:41:04.446Z,1.70
2022-09-28T13:43:50.411Z,2.07
2022-09-28T13:46:42.269Z,1.20
2022-09-28T13:49:47.609Z,1.20
2022-09-28T13:52:44.392Z,1.25
2022-09-28T13:55:33.497Z,1.50
2022-09-28T13:58:18.869Z,1.20
2022-09-28T14:01:02.484Z,1.20
2022-09-28T14:04:20.546Z,1.20
2022-09-28T14:07:11.544Z,1.25
2022-09-28T14:10:09.580Z,1.73
2022-09-28T14:12:37.533Z,1.57
2022-09-28T14:15:30.945Z,1.52
2022-09-28T14:18:01.896Z,1.30
2022-09-28T14:20:31.727Z,1.40
2022-09-28T14:23:34.777Z,1.70
2022-09-28T14:26:27.547Z,1.50
2022-09-28T14:29:10.138Z,1.60
2022-09-28T14:31:46.104Z,1.55
2022-09-28T14:34:34.687Z,1.63
2022-09-28T14:37:24.210Z,1.75
2022-09-28T14:40:10.978Z,1.67
2022-09-28T14:42:39.027Z,1.50
2022-09-28T14:45:07.417Z,1.90
2022-09-28T14:48:04.389Z,1.80
2022-09-28T14:50:32.368Z,2.03
2022-09-28T14:53:12.548Z,1.70
2022-09-28T14:56:01.166Z,1.90
2022-09-28T14:58:30.372Z,1.80
2022-09-28T15:01:05.942Z,2.78
2022-09-28T15:03:36.201Z,1.98
2022-09-28T15:06:04.076Z,1.90
2022-09-28T15:08:39.687Z,1.85
2022-09-28T15:11:25.872Z,2.05
2022-09-28T15:14:07.741Z,2.10
2022-09-28T15:16:35.653Z,2.05
2022-09-28T15:19:39.498Z,2.07
2022-09-28T15:22:18.619Z,1.77
2022-09-28T15:25:02.251Z,2.00
2022-09-28T15:27:38.691Z,1.90
2022-09-28T15:30:32.327Z,1.80
2022-09-28T15:33:22.516Z,2.17
2022-09-28T15:36:05.305Z,1.60
2022-09-28T15:38:34.837Z,1.90
2022-09-28T15:41:07.582Z,1.80
2022-09-28T15:43:38.076Z,1.60
2022-09-28T15:46:20.362Z,1.47
2022-09-28T15:48:59.927Z,2.00
2022-09-28T15:51:30.064Z,1.60
2022-09-28T15:54:12.775Z,1.40
2022-09-28T15:57:02.950Z,1.85
2022-09-28T15:59:39.922Z,2.40
2022-09-28T16:02:17.652Z,1.80
2022-09-28T16:05:01.190Z,1.92
2022-09-28T16:07:34.816Z,1.80
2022-09-28T16:10:33.705Z,4.80
2022-09-28T16:13:28.038Z,1.90
2022-09-28T16:16:00.155Z,2.38
2022-09-28T16:18:30.728Z,1.85
2022-09-28T16:21:25.117Z,1.80
2022-09-28T16:23:58.612Z,2.10
2022-09-28T16:26:37.948Z,2.10
2022-09-28T16:29:26.278Z,1.60
2022-09-28T16:31:56.125Z,2.42
2022-09-28T16:34:30.824Z,1.77
2022-09-28T16:36:58.756Z,2.00
2022-09-28T16:39:26.657Z,1.60
2022-09-28T16:42:02.210Z,1.55
2022-09-28T16:44:32.119Z,2.03
2022-09-28T16:47:01.324Z,1.77
2022-09-28T16:49:32.572Z,1.98
2022-09-28T16:52:01.675Z,1.90
2022-09-28T16:54:48.282Z,1.70
2022-09-28T16:57:16.610Z,2.00
2022-09-28T16:59:44.371Z,2.10
2022-09-28T17:02:45.762Z,1.92
2022-09-28T17:05:19.823Z,2.40
2022-09-28T17:07:51.878Z,2.10
2022-09-28T17:10:26.763Z,2.20
2022-09-28T17:12:54.778Z,2.35
2022-09-28T17:15:23.361Z,2.10
2022-09-28T17:17:51.662Z,2.17
2022-09-28T17:20:23.651Z,2.63
2022-09-28T17:22:51.793Z,2.60
2022-09-28T17:25:21.251Z,2.45
2022-09-28T17:27:50.035Z,2.90
2022-09-28T17:30:21.155Z,2.83
2022-09-28T17:32:52.108Z,2.38
2022-09-28T17:35:25.064Z,2.30
2022-09-28T17:37:54.271Z,2.47
2022-09-28T17:40:28.569Z,2.65
2022-09-28T17:43:00.621Z,2.67
2022-09-28T17:45:31.614Z,2.60
2022-09-28T17:48:01.167Z,2.58
2022-09-28T17:50:32.744Z,2.90
2022-09-28T17:53:06.387Z,2.90
2022-09-28T17:55:37.047Z,2.60
2022-09-28T17:58:18.703Z,2.63
2022-09-28T18:00:49.365Z,2.50
2022-09-28T18:03:23.440Z,2.80
2022-09-28T18:06:04.432Z,2.53
2022-09-28T18:08:32.798Z,2.10
2022-09-28T18:11:02.024Z,2.33
2022-09-28T18:13:30.293Z,2.20
2022-09-28T18:15:58.354Z,3.15
2022-09-28T18:18:27.063Z,3.30
2022-09-28T18:20:54.999Z,2.73
2022-09-28T18:23:23.011Z,2.72
2022-09-28T18:25:50.739Z,2.95
2022-09-28T18:28:19.459Z,2.80
2022-09-28T18:30:50.371Z,3.03
2022-09-28T18:33:18.489Z,7.20
2022-09-28T18:35:54.857Z,4.63
2022-09-28T18:38:22.902Z,3.60
2022-09-28T18:40:50.853Z,3.75
2022-09-28T18:43:18.862Z,3.25
2022-09-28T18:45:47.639Z,2.60
2022-09-28T18:48:15.754Z,2.88
2022-09-28T18:50:43.759Z,3.00
2022-09-28T18:53:14.479Z,2.88
2022-09-28T18:55:45.414Z,3.38
2022-09-28T18:58:13.454Z,3.90
2022-09-28T19:00:42.529Z,3.63
2022-09-28T19:03:12.493Z,3.90
2022-09-28T19:05:44.270Z,4.00
2022-09-28T19:08:12.288Z,3.65
2022-09-28T19:10:40.267Z,4.93
2022-09-28T19:13:10.985Z,8.40
2022-09-28T19:15:38.949Z,8.23
2022-09-28T19:18:07.407Z,6.55
2022-09-28T19:20:35.644Z,5.97
2022-09-28T19:23:04.802Z,5.93
2022-09-28T19:25:35.829Z,6.40
2022-09-28T19:28:04.267Z,7.55
2022-09-28T19:30:32.242Z,7.57
2022-09-28T19:33:00.170Z,7.10
2022-09-28T19:35:28.502Z,6.17
2022-09-28T19:37:59.340Z,5.97
2022-09-28T19:40:28.979Z,6.18
2022-09-28T19:43:00.152Z,6.18
2022-09-28T19:45:28.843Z,6.80
2022-09-28T19:47:59.526Z,10.90
2022-09-28T19:50:27.789Z,12.68
2022-09-28T19:52:55.825Z,11.77
2022-09-28T19:55:25.601Z,10.15
2022-09-28T19:57:53.557Z,9.15
2022-09-28T20:00:23.838Z,11.00
2022-09-28T20:02:52.140Z,11.45
2022-09-28T20:05:20.314Z,8.63
2022-09-28T20:07:48.403Z,15.38
2022-09-28T20:10:16.402Z,18.30
2022-09-28T20:12:44.315Z,15.80
2022-09-28T20:15:12.196Z,7.22
2022-09-28T20:17:40.315Z,5.25
2022-09-28T20:20:08.695Z,4.00
2022-09-28T20:22:37.380Z,3.97
2022-09-28T20:25:05.533Z,3.50
2022-09-28T20:27:33.516Z,3.42
2022-09-28T20:30:02.387Z,3.30
2022-09-28T20:32:36.471Z,2.90
2022-09-28T20:35:04.610Z,2.30
2022-09-28T20:37:33.313Z,2.30
2022-09-28T20:40:02.424Z,2.03
2022-09-28T20:42:32.416Z,2.45
2022-09-28T20:45:00.225Z,1.95
2022-09-28T20:47:28.226Z,2.10
2022-09-28T20:49:56.354Z,1.90
2022-09-28T20:52:24.248Z,1.90
2022-09-28T20:54:52.357Z,2.13
2022-09-28T20:57:20.510Z,2.15
2022-09-28T20:59:54.712Z,1.80
2022-09-28T21:02:24.437Z,2.20
2022-09-28T21:04:52.389Z,1.73
2022-09-28T21:07:20.457Z,2.05
2022-09-28T21:09:48.906Z,1.65
2022-09-28T21:12:17.628Z,2.50
2022-09-28T21:14:45.672Z,2.30
2022-09-28T21:17:13.815Z,2.15
2022-09-28T21:19:41.700Z,2.00
2022-09-28T21:22:09.714Z,2.63
2022-09-28T21:24:38.036Z,1.98
2022-09-28T21:27:05.963Z,2.03
2022-09-28T21:29:33.915Z,1.98
2022-09-28T21:32:02.158Z,1.70
2022-09-28T21:34:30.061Z,1.70
2022-09-28T21:36:58.156Z,1.70
2022-09-28T21:39:26.184Z,1.83
2022-09-28T21:41:54.170Z,1.83
2022-09-28T21:44:22.176Z,2.10
2022-09-28T21:46:50.248Z,2.00
2022-09-28T21:49:20.105Z,1.42
2022-09-28T21:51:48.322Z,1.47
2022-09-28T21:54:16.271Z,1.30
2022-09-28T21:56:45.028Z,1.38
2022-09-28T21:59:12.896Z,1.50
2022-09-28T22:01:43.009Z,1.40
2022-09-28T22:04:12.084Z,1.40
2022-09-28T22:06:43.029Z,1.45
2022-09-28T22:09:11.460Z,1.83
2022-09-28T22:11:39.463Z,1.35
2022-09-28T22:14:07.318Z,1.30
2022-09-28T22:16:35.172Z,1.50
2022-09-28T22:19:03.263Z,1.55
2022-09-28T22:21:34.042Z,1.45
2022-09-28T22:24:05.349Z,1.60
2022-09-28T22:26:35.801Z,1.30
2022-09-28T22:29:09.576Z,1.30
2022-09-28T22:31:39.813Z,1.30
2022-09-28T22:34:09.460Z,1.70
2022-09-28T22:36:37.426Z,1.23
2022-09-28T22:39:05.547Z,1.35
2022-09-28T22:41:33.435Z,1.30
2022-09-28T22:44:01.694Z,1.35
2022-09-28T22:46:32.501Z,1.35
2022-09-28T22:49:01.162Z,1.30
2022-09-28T22:51:30.629Z,1.30
2022-09-28T22:53:58.830Z,1.47
2022-09-28T22:56:26.895Z,1.30
2022-09-28T22:58:56.866Z,1.30
2022-09-28T23:01:28.537Z,1.17
2022-09-28T23:03:58.673Z,1.40
2022-09-28T23:06:29.866Z,1.40
2022-09-28T23:08:58.322Z,1.48
2022-09-28T23:11:26.191Z,1.30
2022-09-28T23:13:56.737Z,1.30
2022-09-28T23:16:27.043Z,1.15
2022-09-28T23:18:56.231Z,1.30
2022-09-28T23:21:26.507Z,1.27
2022-09-28T23:23:59.336Z,1.40
2022-09-28T23:26:32.786Z,1.30
2022-09-28T23:29:01.093Z,1.40
2022-09-28T23:31:31.633Z,1.10
2022-09-28T23:34:02.662Z,1.23
2022-09-28T23:36:31.047Z,1.90
2022-09-28T23:38:59.374Z,1.10
2022-09-28T23:41:27.575Z,1.40
2022-09-28T23:43:55.398Z,1.10
2022-09-28T23:46:23.534Z,1.35
2022-09-28T23:48:52.131Z,1.45
2022-09-28T23:51:23.141Z,1.00
2022-09-28T23:53:53.397Z,1.40
2022-09-28T23:56:21.822Z,1.27
2022-09-28T23:58:49.718Z,1.10
